createdAt,value
2022-09-22T00:00:57.850Z,100483.88
2022-09-22T00:03:25.926Z,100478.47
2022-09-22T00:06:00.609Z,100486.56
2022-09-22T00:08:30.970Z,100479.50
2022-09-22T00:11:03.607Z,100478.47
2022-09-22T00:13:32.279Z,100481.19
2022-09-22T00:16:01.069Z,100478.47
2022-09-22T00:18:29.052Z,100476.38
2022-09-22T00:20:57.008Z,100467.69
2022-09-22T00:23:28.646Z,100469.53
2022-09-22T00:25:59.676Z,100473.91
2022-09-22T00:28:27.585Z,100469.31
2022-09-22T00:30:57.066Z,100471.19
2022-09-22T00:33:26.226Z,100473.91
2022-09-22T00:36:03.628Z,100470.97
2022-09-22T00:38:33.410Z,100476.38
2022-09-22T00:41:02.690Z,100481.75
2022-09-22T00:43:31.263Z,100476.38
2022-09-22T00:46:00.664Z,100470.97
2022-09-22T00:48:29.347Z,100461.03
2022-09-22T00:50:57.295Z,100464.56
2022-09-22T00:53:25.412Z,100467.25
2022-09-22T00:55:55.595Z,100457.06
2022-09-22T00:58:31.403Z,100456.03
2022-09-22T01:00:59.486Z,100457.91
2022-09-22T01:03:30.116Z,100462.47
2022-09-22T01:05:59.960Z,100460.59
2022-09-22T01:08:28.011Z,100460.38
2022-09-22T01:10:56.091Z,100452.28
2022-09-22T01:13:28.416Z,100448.97
2022-09-22T01:16:07.072Z,100449.56
2022-09-22T01:18:39.937Z,100446.03
2022-09-22T01:21:32.433Z,100452.28
2022-09-22T01:24:36.511Z,100448.53
2022-09-22T01:27:29.292Z,100453.13
2022-09-22T01:30:15.956Z,100448.53
2022-09-22T01:32:46.318Z,100450.44
2022-09-22T01:35:19.561Z,100443.59
2022-09-22T01:37:50.501Z,100443.59
2022-09-22T01:40:19.136Z,100445.22
2022-09-22T01:42:48.853Z,100447.72
2022-09-22T01:45:19.249Z,100449.56
2022-09-22T01:47:48.782Z,100447.72
2022-09-22T01:50:18.606Z,100447.72
2022-09-22T01:52:46.512Z,100443.16
2022-09-22T01:55:16.129Z,100439.63
2022-09-22T01:57:46.373Z,100437.75
2022-09-22T02:00:15.164Z,100432.34
2022-09-22T02:02:46.272Z,100438.56
2022-09-22T02:05:16.351Z,100429.41
2022-09-22T02:07:47.627Z,100430.28
2022-09-22T02:10:16.900Z,100437.53
2022-09-22T02:12:47.635Z,100431.28
2022-09-22T02:15:31.021Z,100428.59
2022-09-22T02:18:04.338Z,100417.81
2022-09-22T02:20:32.223Z,100426.72
2022-09-22T02:23:01.700Z,100428.59
2022-09-22T02:25:30.932Z,100430.28
2022-09-22T02:27:58.862Z,100428.59
2022-09-22T02:30:27.992Z,100428.59
2022-09-22T02:32:57.414Z,100425.91
2022-09-22T02:35:28.104Z,100423.19
2022-09-22T02:38:04.346Z,100414.91
2022-09-22T02:40:33.798Z,100424.88
2022-09-22T02:43:04.568Z,100420.31
2022-09-22T02:45:35.530Z,100422.19
2022-09-22T02:48:10.817Z,100431.09
2022-09-22T02:50:40.190Z,100423.00
2022-09-22T02:53:12.287Z,100426.53
2022-09-22T02:55:40.334Z,100425.69
2022-09-22T02:58:08.302Z,100420.09
2022-09-22T03:00:40.683Z,100423.63
2022-09-22T03:03:10.722Z,100422.81
2022-09-22T03:05:41.137Z,100427.16
2022-09-22T03:08:10.183Z,100428.81
2022-09-22T03:10:39.234Z,100429.88
2022-09-22T03:13:17.202Z,100429.88
2022-09-22T03:15:46.748Z,100426.13
2022-09-22T03:18:16.121Z,100426.13
2022-09-22T03:20:46.638Z,100420.72
2022-09-22T03:23:15.833Z,100424.47
2022-09-22T03:25:45.032Z,100424.47
2022-09-22T03:28:13.973Z,100427.16
2022-09-22T03:30:41.895Z,100425.50
2022-09-22T03:33:10.964Z,100422.81
2022-09-22T03:35:39.325Z,100426.13
2022-09-22T03:38:12.401Z,100425.50
2022-09-22T03:40:41.562Z,100422.81
2022-09-22T03:43:14.363Z,100422.81
2022-09-22T03:45:45.827Z,100422.81
2022-09-22T03:48:13.771Z,100425.50
2022-09-22T03:50:41.658Z,100424.47
2022-09-22T03:53:12.055Z,100424.47
2022-09-22T03:55:41.237Z,100425.31
2022-09-22T03:58:10.303Z,100428.81
2022-09-22T04:00:39.397Z,100432.34
2022-09-22T04:03:08.918Z,100434.22
2022-09-22T04:05:38.119Z,100431.53
2022-09-22T04:08:07.203Z,100425.06
2022-09-22T04:10:37.975Z,100430.47
2022-09-22T04:13:07.148Z,100426.75
2022-09-22T04:15:36.399Z,100430.47
2022-09-22T04:18:06.103Z,100433.16
2022-09-22T04:20:37.183Z,100429.44
2022-09-22T04:23:05.101Z,100433.16
2022-09-22T04:25:34.475Z,100433.16
2022-09-22T04:28:05.680Z,100441.25
2022-09-22T04:30:35.290Z,100443.13
2022-09-22T04:33:04.755Z,100442.31
2022-09-22T04:35:33.951Z,100447.72
2022-09-22T04:38:03.169Z,100446.06
2022-09-22T04:40:34.646Z,100446.91
2022-09-22T04:43:05.601Z,100445.84
2022-09-22T04:45:39.375Z,100445.03
2022-09-22T04:48:08.851Z,100447.72
2022-09-22T04:50:37.823Z,100445.03
2022-09-22T04:53:07.019Z,100445.84
2022-09-22T04:55:36.387Z,100440.44
2022-09-22T04:58:07.817Z,100441.06
2022-09-22T05:00:36.871Z,100445.63
2022-09-22T05:03:13.364Z,100448.34
2022-09-22T05:05:44.953Z,100448.97
2022-09-22T05:08:19.410Z,100444.38
2022-09-22T05:10:48.580Z,100441.47
2022-09-22T05:13:21.629Z,100449.56
2022-09-22T05:15:50.946Z,100448.72
2022-09-22T05:18:18.835Z,100446.84
2022-09-22T05:20:46.746Z,100452.25
2022-09-22T05:23:14.655Z,100447.47
2022-09-22T05:25:44.133Z,100443.75
2022-09-22T05:28:12.336Z,100446.47
2022-09-22T05:30:41.574Z,100453.50
2022-09-22T05:33:09.478Z,100454.56
2022-09-22T05:35:37.386Z,100448.09
2022-09-22T05:38:07.624Z,100455.16
2022-09-22T05:40:35.591Z,100449.75
2022-09-22T05:43:03.511Z,100445.19
2022-09-22T05:45:31.525Z,100453.31
2022-09-22T05:48:00.892Z,100455.16
2022-09-22T05:50:28.841Z,100454.13
2022-09-22T05:53:07.612Z,100449.53
2022-09-22T05:55:35.670Z,100453.06
2022-09-22T05:58:03.601Z,100459.28
2022-09-22T06:00:31.718Z,100451.19
2022-09-22T06:03:01.087Z,100456.38
2022-09-22T06:05:29.520Z,100457.00
2022-09-22T06:08:00.825Z,100452.44
2022-09-22T06:10:29.642Z,100455.97
2022-09-22T06:13:00.854Z,100457.59
2022-09-22T06:15:29.015Z,100458.66
2022-09-22T06:17:57.059Z,100463.84
2022-09-22T06:20:26.512Z,100464.69
2022-09-22T06:22:55.078Z,100461.97
2022-09-22T06:25:23.372Z,100461.97
2022-09-22T06:28:00.024Z,100468.22
2022-09-22T06:30:27.993Z,100458.22
2022-09-22T06:32:56.204Z,100460.94
2022-09-22T06:35:24.111Z,100465.31
2022-09-22T06:37:57.940Z,100470.69
2022-09-22T06:40:26.342Z,100473.41
2022-09-22T06:42:57.774Z,100468.81
2022-09-22T06:45:27.315Z,100473.59
2022-09-22T06:47:58.825Z,100468.00
2022-09-22T06:50:29.542Z,100468.00
2022-09-22T06:53:00.912Z,100473.41
2022-09-22T06:55:29.064Z,100467.16
2022-09-22T06:57:59.010Z,100466.31
2022-09-22T07:00:29.694Z,100469.84
2022-09-22T07:03:03.152Z,100471.72
2022-09-22T07:05:31.114Z,100477.13
2022-09-22T07:08:00.518Z,100475.47
2022-09-22T07:10:29.684Z,100473.81
2022-09-22T07:12:59.045Z,100464.88
2022-09-22T07:15:27.881Z,100477.56
2022-09-22T07:17:55.790Z,100480.69
2022-09-22T07:20:23.888Z,100472.59
2022-09-22T07:22:53.043Z,100474.66
2022-09-22T07:25:22.481Z,100478.63
2022-09-22T07:27:50.973Z,100481.56
2022-09-22T07:30:20.582Z,100477.19
2022-09-22T07:32:48.512Z,100490.06
2022-09-22T07:35:16.650Z,100484.88
2022-09-22T07:37:46.322Z,100483.00
2022-09-22T07:40:14.750Z,100490.47
2022-09-22T07:42:44.145Z,100494.25
2022-09-22T07:45:14.237Z,100492.56
2022-09-22T07:48:01.638Z,100502.53
2022-09-22T07:50:32.211Z,100497.38
2022-09-22T07:53:00.107Z,100502.94
2022-09-22T07:55:28.045Z,100498.38
2022-09-22T07:57:58.296Z,100505.47
2022-09-22T08:00:26.582Z,100506.50
2022-09-22T08:02:56.014Z,100498.38
2022-09-22T08:05:27.655Z,100507.50
2022-09-22T08:07:57.207Z,100502.31
2022-09-22T08:10:25.349Z,100494.22
2022-09-22T08:12:53.827Z,100488.00
2022-09-22T08:15:26.786Z,100494.22
2022-09-22T08:17:57.538Z,100489.88
2022-09-22T08:20:26.398Z,100490.91
2022-09-22T08:22:54.388Z,100490.06
2022-09-22T08:25:22.276Z,100491.75
2022-09-22T08:27:50.291Z,100497.13
2022-09-22T08:30:19.731Z,100502.53
2022-09-22T08:32:49.120Z,100499.22
2022-09-22T08:35:17.542Z,100495.69
2022-09-22T08:37:45.814Z,100507.94
2022-09-22T08:40:16.674Z,100499.22
2022-09-22T08:42:45.768Z,100501.72
2022-09-22T08:45:26.276Z,100494.88
2022-09-22T08:48:15.592Z,100492.16
2022-09-22T08:51:06.285Z,100493.19
2022-09-22T08:53:35.029Z,100496.72
2022-09-22T08:56:07.045Z,100501.72
2022-09-22T08:58:42.359Z,100503.34
2022-09-22T09:01:18.837Z,100499.63
2022-09-22T09:03:56.108Z,100497.97
2022-09-22T09:06:27.079Z,100488.41
2022-09-22T09:09:08.212Z,100491.50
2022-09-22T09:11:46.381Z,100486.97
2022-09-22T09:14:21.289Z,100487.16
2022-09-22T09:16:51.269Z,100486.13
2022-09-22T09:19:21.805Z,100475.97
2022-09-22T09:21:52.834Z,100480.50
2022-09-22T09:27:20.178Z,100482.38
2022-09-22T09:29:54.349Z,100481.38
2022-09-22T09:32:25.509Z,100485.91
2022-09-22T09:34:56.108Z,100475.97
2022-09-22T09:37:24.455Z,100485.09
2022-09-22T09:39:52.326Z,100478.03
2022-09-22T09:42:24.795Z,100478.88
2022-09-22T09:44:53.777Z,100480.31
2022-09-22T09:47:30.443Z,100474.72
2022-09-22T09:49:59.870Z,100479.69
2022-09-22T09:52:27.752Z,100475.09
2022-09-22T09:54:55.633Z,100473.44
2022-09-22T09:57:27.565Z,100468.66
2022-09-22T10:00:32.579Z,100470.91
2022-09-22T10:03:13.035Z,100466.38
2022-09-22T10:05:43.532Z,100464.69
2022-09-22T10:08:20.192Z,100461.97
2022-09-22T10:10:48.419Z,100465.31
2022-09-22T10:13:29.701Z,100467.56
2022-09-22T10:16:06.166Z,100460.09
2022-09-22T10:18:36.422Z,100464.19
2022-09-22T10:21:07.112Z,100459.41
2022-09-22T10:23:35.143Z,100460.88
2022-09-22T10:26:15.605Z,100453.38
2022-09-22T10:28:44.865Z,100452.13
2022-09-22T10:31:20.512Z,100457.53
2022-09-22T10:33:55.769Z,100443.81
2022-09-22T10:36:26.182Z,100452.50
2022-09-22T10:38:57.416Z,100441.25
2022-09-22T10:41:30.866Z,100444.59
2022-09-22T10:44:03.127Z,100432.97
2022-09-22T10:47:15.208Z,100435.47
2022-09-22T10:49:52.035Z,100435.84
2022-09-22T10:52:23.168Z,100423.78
2022-09-22T10:55:06.855Z,100423.78
2022-09-22T10:57:47.327Z,100427.53
2022-09-22T11:00:15.479Z,100424.81
2022-09-22T11:03:09.741Z,100418.56
2022-09-22T11:06:13.874Z,100416.09
2022-09-22T11:09:03.004Z,100409.66
2022-09-22T11:12:03.742Z,100397.41
2022-09-22T11:14:37.976Z,100403.63
2022-09-22T11:17:22.109Z,100392.81
2022-09-22T11:19:59.988Z,100389.53
2022-09-22T11:22:37.600Z,100391.16
2022-09-22T11:25:16.891Z,100385.38
2022-09-22T11:27:52.048Z,100385.97
2022-09-22T11:30:21.919Z,100386.81
2022-09-22T11:33:18.133Z,100388.66
2022-09-22T11:36:01.950Z,100388.47
2022-09-22T11:38:50.811Z,100380.97
2022-09-22T11:41:30.996Z,100371.00
2022-09-22T11:44:20.225Z,100366.41
2022-09-22T11:46:56.668Z,100371.00
2022-09-22T11:49:30.740Z,100372.44
2022-09-22T11:52:04.940Z,100369.53
2022-09-22T11:54:44.989Z,100367.84
2022-09-22T11:57:16.061Z,100363.25
2022-09-22T11:59:45.869Z,100364.31
2022-09-22T12:02:18.740Z,100365.59
2022-09-22T12:04:49.261Z,100358.53
2022-09-22T12:07:18.634Z,100342.09
2022-09-22T12:09:48.330Z,100349.75
2022-09-22T12:12:21.063Z,100350.59
2022-09-22T12:14:52.297Z,100346.03
2022-09-22T12:17:23.668Z,100348.13
2022-09-22T12:19:56.421Z,100350.19
2022-09-22T12:22:27.754Z,100346.88
2022-09-22T12:24:55.663Z,100343.97
2022-09-22T12:27:26.137Z,100340.22
2022-09-22T12:30:00.971Z,100342.72
2022-09-22T12:32:34.436Z,100341.06
2022-09-22T12:35:02.390Z,100340.00
2022-09-22T12:37:31.213Z,100340.00
2022-09-22T12:40:05.401Z,100335.22
2022-09-22T12:42:37.000Z,100327.13
2022-09-22T12:45:10.020Z,100312.78
2022-09-22T12:47:38.886Z,100311.94
2022-09-22T12:50:08.485Z,100310.28
2022-09-22T12:53:02.541Z,100307.78
2022-09-22T12:55:39.339Z,100312.38
2022-09-22T12:58:45.631Z,100311.75
2022-09-22T13:01:32.731Z,100310.13
2022-09-22T13:04:18.200Z,100305.78
2022-09-22T13:06:56.609Z,100311.19
2022-09-22T13:09:26.031Z,100312.19
2022-09-22T13:12:28.999Z,100308.69
2022-09-22T13:15:17.398Z,100302.47
2022-09-22T13:17:45.836Z,100306.19
2022-09-22T13:20:25.149Z,100302.47
2022-09-22T13:22:55.288Z,100310.56
2022-09-22T13:25:25.407Z,100313.47
2022-09-22T13:28:21.234Z,100309.94
2022-09-22T13:31:03.367Z,100317.00
2022-09-22T13:33:34.820Z,100318.06
2022-09-22T13:36:04.665Z,100322.41
2022-09-22T13:38:33.901Z,100317.84
2022-09-22T13:41:01.808Z,100310.56
2022-09-22T13:43:32.751Z,100313.25
2022-09-22T13:46:02.189Z,100313.25
2022-09-22T13:48:32.363Z,100321.38
2022-09-22T13:51:02.156Z,100317.59
2022-09-22T13:53:30.046Z,100318.66
2022-09-22T13:55:57.961Z,100316.16
2022-09-22T13:58:28.039Z,100316.16
2022-09-22T14:01:14.391Z,100325.34
2022-09-22T14:03:43.945Z,100317.44
2022-09-22T14:06:13.132Z,100322.00
2022-09-22T14:08:41.079Z,100322.84
2022-09-22T14:11:14.056Z,100317.66
2022-09-22T14:13:43.696Z,100321.19
2022-09-22T14:16:14.058Z,100315.78
2022-09-22T14:18:44.739Z,100319.56
2022-09-22T14:21:12.691Z,100317.44
2022-09-22T14:23:44.475Z,100308.31
2022-09-22T14:26:33.407Z,100314.28
2022-09-22T14:29:09.274Z,100314.47
2022-09-22T14:31:37.290Z,100313.00
2022-09-22T14:34:08.662Z,100313.97
2022-09-22T14:36:36.974Z,100310.19
2022-09-22T14:39:09.976Z,100308.50
2022-09-22T14:41:38.831Z,100305.75
2022-09-22T14:44:36.383Z,100309.03
2022-09-22T14:47:18.683Z,100303.34
2022-09-22T14:49:48.428Z,100307.06
2022-09-22T14:52:23.132Z,100313.81
2022-09-22T14:54:51.442Z,100311.06
2022-09-22T14:57:19.338Z,100308.09
2022-09-22T15:00:07.001Z,100303.75
2022-09-22T15:02:39.788Z,100306.47
2022-09-22T15:05:10.128Z,100305.81
2022-09-22T15:07:38.783Z,100311.63
2022-09-22T15:10:08.013Z,100304.53
2022-09-22T15:12:37.965Z,100315.09
2022-09-22T15:15:16.541Z,100307.00
2022-09-22T15:18:02.399Z,100314.28
2022-09-22T15:20:41.795Z,100321.19
2022-09-22T15:23:14.001Z,100325.25
2022-09-22T15:25:41.941Z,100320.94
2022-09-22T15:28:14.711Z,100320.84
2022-09-22T15:30:44.659Z,100328.56
2022-09-22T15:33:14.693Z,100320.09
2022-09-22T15:35:45.173Z,100332.97
2022-09-22T15:38:23.624Z,100321.78
2022-09-22T15:40:51.672Z,100331.16
2022-09-22T15:43:21.588Z,100332.16
2022-09-22T15:45:50.126Z,100335.13
2022-09-22T15:48:27.709Z,100342.59
2022-09-22T15:50:57.173Z,100343.06
2022-09-22T15:53:25.155Z,100344.31
2022-09-22T15:55:54.160Z,100346.41
2022-09-22T15:58:23.198Z,100346.84
2022-09-22T16:00:51.360Z,100346.47
2022-09-22T16:03:22.715Z,100356.44
2022-09-22T16:05:52.140Z,100360.19
2022-09-22T16:08:23.607Z,100369.34
2022-09-22T16:10:51.840Z,100373.31
2022-09-22T16:13:20.102Z,100383.50
2022-09-22T16:15:48.739Z,100385.16
2022-09-22T16:18:16.678Z,100395.34
2022-09-22T16:20:44.542Z,100399.09
2022-09-22T16:23:12.434Z,100407.19
2022-09-22T16:25:42.806Z,100402.25
2022-09-22T16:28:11.028Z,100405.13
2022-09-22T16:30:38.921Z,100410.78
2022-09-22T16:33:07.147Z,100408.28
2022-09-22T16:35:35.024Z,100408.50
2022-09-22T16:38:02.929Z,100417.66
2022-09-22T16:40:31.336Z,100417.66
2022-09-22T16:43:00.713Z,100409.78
2022-09-22T16:45:46.051Z,100409.97
2022-09-22T16:48:14.375Z,100415.38
2022-09-22T16:50:45.163Z,100411.84
2022-09-22T16:53:14.349Z,100414.31
2022-09-22T16:55:49.281Z,100418.91
2022-09-22T16:58:18.725Z,100419.72
2022-09-22T17:00:47.205Z,100432.22
2022-09-22T17:03:15.196Z,100421.41
2022-09-22T17:05:43.147Z,100420.34
2022-09-22T17:08:11.500Z,100404.97
2022-09-22T17:10:39.392Z,100390.63
2022-09-22T17:13:08.440Z,100375.69
2022-09-22T17:15:37.713Z,100376.50
2022-09-22T17:18:06.090Z,100382.97
2022-09-22T17:20:34.215Z,100371.34
2022-09-22T17:23:02.641Z,100381.31
2022-09-22T17:25:38.953Z,100384.03
2022-09-22T17:28:07.710Z,100377.78
2022-09-22T17:30:37.474Z,100378.81
2022-09-22T17:33:07.223Z,100375.31
2022-09-22T17:35:35.212Z,100383.41
2022-09-22T17:38:03.137Z,100386.94
2022-09-22T17:40:31.137Z,100382.34
2022-09-22T17:42:59.115Z,100393.16
2022-09-22T17:45:26.998Z,100388.81
2022-09-22T17:48:14.243Z,100403.97
2022-09-22T17:50:59.661Z,100399.63
2022-09-22T17:53:44.692Z,100407.72
2022-09-22T17:56:13.201Z,100399.00
2022-09-22T17:58:41.351Z,100399.81
2022-09-22T18:01:09.336Z,100404.41
2022-09-22T18:03:38.629Z,100405.44
2022-09-22T18:06:14.579Z,100402.75
2022-09-22T18:08:44.716Z,100410.84
2022-09-22T18:11:13.673Z,100417.91
2022-09-22T18:13:41.622Z,100421.66
2022-09-22T18:16:21.118Z,100418.34
2022-09-22T18:18:50.466Z,100421.03
2022-09-22T18:21:18.355Z,100422.09
2022-09-22T18:23:46.304Z,100424.56
2022-09-22T18:26:16.604Z,100424.78
2022-09-22T18:28:44.543Z,100421.47
2022-09-22T18:31:12.947Z,100418.78
2022-09-22T18:33:42.292Z,100420.84
2022-09-22T18:36:11.718Z,100427.31
2022-09-22T18:38:42.280Z,100424.59
2022-09-22T18:41:10.215Z,100428.34
2022-09-22T18:43:38.376Z,100426.69
2022-09-22T18:46:07.355Z,100420.47
2022-09-22T18:48:35.322Z,100411.50
2022-09-22T18:51:06.392Z,100411.75
2022-09-22T18:53:37.308Z,100416.53
2022-09-22T18:56:11.541Z,100420.91
2022-09-22T18:58:39.408Z,100411.94
2022-09-22T19:01:07.310Z,100415.25
2022-09-22T19:03:36.317Z,100410.47
2022-09-22T19:06:04.336Z,100420.66
2022-09-22T19:08:33.320Z,100422.31
2022-09-22T19:11:02.657Z,100420.47
2022-09-22T19:13:31.251Z,100416.91
2022-09-22T19:15:59.199Z,100417.97
2022-09-22T19:18:27.176Z,100419.59
2022-09-22T19:20:55.329Z,100419.59
2022-09-22T19:23:23.299Z,100432.09
2022-09-22T19:25:52.291Z,100422.31
2022-09-22T19:28:23.357Z,100426.88
2022-09-22T19:30:52.309Z,100426.28
2022-09-22T19:33:20.246Z,100421.72
2022-09-22T19:35:48.154Z,100425.25
2022-09-22T19:38:17.752Z,100422.75
2022-09-22T19:40:46.421Z,100422.16
2022-09-22T19:43:15.640Z,100431.06
2022-09-22T19:45:44.994Z,100429.19
2022-09-22T19:48:14.312Z,100433.97
2022-09-22T19:50:42.250Z,100428.56
2022-09-22T19:53:10.168Z,100431.28
2022-09-22T19:55:38.126Z,100433.34
2022-09-22T19:58:06.061Z,100436.91
2022-09-22T20:00:34.006Z,100438.75
2022-09-22T20:03:03.644Z,100433.16
2022-09-22T20:05:34.729Z,100437.09
2022-09-22T20:08:03.908Z,100442.50
2022-09-22T20:10:32.600Z,100436.06
2022-09-22T20:13:00.689Z,100436.06
2022-09-22T20:15:27.756Z,100436.06
2022-09-22T20:17:55.710Z,100440.19
2022-09-22T20:20:25.744Z,100437.09
2022-09-22T20:22:56.780Z,100446.84
2022-09-22T20:25:25.642Z,100445.22
2022-09-22T20:27:53.511Z,100444.59
2022-09-22T20:30:21.902Z,100445.63
2022-09-22T20:32:50.426Z,100443.13
2022-09-22T20:35:19.103Z,100443.13
2022-09-22T20:37:48.419Z,100447.91
2022-09-22T20:40:20.044Z,100452.50
2022-09-22T20:42:48.683Z,100456.22
2022-09-22T20:45:18.168Z,100455.59
2022-09-22T20:47:48.896Z,100458.28
2022-09-22T20:50:16.899Z,100463.91
2022-09-22T20:52:44.773Z,100457.66
2022-09-22T20:55:23.176Z,100468.69
2022-09-22T20:57:51.099Z,100463.72
2022-09-22T21:00:19.138Z,100468.06
2022-09-22T21:02:47.422Z,100462.88
2022-09-22T21:05:15.436Z,100472.03
2022-09-22T21:07:44.381Z,100466.63
2022-09-22T21:10:41.267Z,100464.75
2022-09-22T21:13:10.547Z,100479.06
2022-09-22T21:15:38.574Z,100480.13
2022-09-22T21:18:07.745Z,100477.41
2022-09-22T21:20:36.961Z,100480.13
2022-09-22T21:23:05.994Z,100479.28
2022-09-22T21:25:34.960Z,100480.13
2022-09-22T21:28:04.240Z,100483.88
2022-09-22T21:30:35.337Z,100478.47
2022-09-22T21:33:08.009Z,100480.13
2022-09-22T21:35:40.418Z,100477.84
2022-09-22T21:38:09.707Z,100471.81
2022-09-22T21:40:38.755Z,100475.56
2022-09-22T21:43:07.996Z,100466.84
2022-09-22T21:45:38.713Z,100474.13
2022-09-22T21:48:07.859Z,100469.75
2022-09-22T21:50:37.169Z,100465.41
2022-09-22T21:53:05.043Z,100474.56
2022-09-22T21:55:32.976Z,100466.66
2022-09-22T21:58:00.872Z,100470.41
2022-09-22T22:00:50.725Z,100460.63
2022-09-22T22:03:33.564Z,100466.03
2022-09-22T22:06:09.861Z,100469.78
2022-09-22T22:08:40.664Z,100461.06
2022-09-22T22:11:09.473Z,100462.94
2022-09-22T22:13:38.036Z,100462.94
2022-09-22T22:16:07.434Z,100463.56
2022-09-22T22:18:37.002Z,100462.72
2022-09-22T22:21:06.177Z,100458.16
2022-09-22T22:26:31.291Z,100458.34
2022-09-22T22:28:59.226Z,100451.09
2022-09-22T22:31:27.142Z,100448.38
2022-09-22T22:33:57.123Z,100444.69
2022-09-22T22:36:25.126Z,100444.88
2022-09-22T22:38:53.305Z,100443.22
2022-09-22T22:41:21.215Z,100448.00
2022-09-22T22:43:49.316Z,100444.66
2022-09-22T22:46:18.905Z,100440.31
2022-09-22T22:48:47.605Z,100443.22
2022-09-22T22:51:17.465Z,100433.25
2022-09-22T22:53:45.375Z,100435.34
2022-09-22T22:56:13.929Z,100434.72
2022-09-22T22:58:42.760Z,100433.69
2022-09-22T23:01:11.925Z,100437.19
2022-09-22T23:03:41.324Z,100435.75
2022-09-22T23:06:09.372Z,100437.44
2022-09-22T23:08:38.702Z,100438.44
2022-09-22T23:11:07.669Z,100438.44
2022-09-22T23:13:35.639Z,100435.16
2022-09-22T23:16:05.098Z,100441.56
2022-09-22T23:18:35.295Z,100443.25
2022-09-22T23:21:03.812Z,100431.84
2022-09-22T23:23:31.805Z,100436.19
2022-09-22T23:26:01.141Z,100435.34
2022-09-22T23:28:29.100Z,100437.84
2022-09-22T23:30:57.921Z,100432.47
2022-09-22T23:33:27.096Z,100432.47
2022-09-22T23:35:56.036Z,100438.69
2022-09-22T23:38:24.137Z,100436.19
2022-09-22T23:40:52.051Z,100431.41
2022-09-22T23:43:21.634Z,100427.88
2022-09-22T23:45:49.855Z,100431.59
2022-09-22T23:48:18.536Z,100423.75
2022-09-22T23:50:46.499Z,100422.91
2022-09-22T23:53:14.484Z,100424.78
2022-09-22T23:55:42.549Z,100426.25
2022-09-22T23:58:10.733Z,100430.59
